sensor_id;sensor_type;location;lat;lon;timestamp;pressure;altitude;pressure_sealevel;temperature;humidity
19811;BME280;10065;49.632;8.346;2023-02-17T00:00:52;101379.53;;;10.50;69.40
19811;BME280;10065;49.632;8.346;2023-02-17T00:03:20;101376.88;;;10.61;69.31
19811;BME280;10065;49.632;8.346;2023-02-17T00:05:49;101379.50;;;10.61;69.91
19811;BME280;10065;49.632;8.346;2023-02-17T00:08:18;101371.03;;;10.67;69.99
19811;BME280;10065;49.632;8.346;2023-02-17T00:10:54;101369.63;;;10.63;70.50
19811;BME280;10065;49.632;8.346;2023-02-17T00:13:22;101369.09;;;10.69;70.17
19811;BME280;10065;49.632;8.346;2023-02-17T00:15:49;101376.44;;;10.77;70.28
19811;BME280;10065;49.632;8.346;2023-02-17T00:18:17;101370.97;;;10.89;69.56
19811;BME280;10065;49.632;8.346;2023-02-17T00:20:45;101369.00;;;10.91;69.82
19811;BME280;10065;49.632;8.346;2023-02-17T00:23:13;101380.81;;;10.99;69.53
19811;BME280;10065;49.632;8.346;2023-02-17T00:25:42;101376.59;;;10.96;69.65
19811;BME280;10065;49.632;8.346;2023-02-17T00:28:10;101370.88;;;11.01;69.89
19811;BME280;10065;49.632;8.346;2023-02-17T00:30:38;101369.06;;;11.01;69.73
19811;BME280;10065;49.632;8.346;2023-02-17T00:33:05;101376.19;;;11.01;70.29
19811;BME280;10065;49.632;8.346;2023-02-17T00:35:33;101372.00;;;10.98;70.62
19811;BME280;10065;49.632;8.346;2023-02-17T00:38:05;101374.97;;;11.05;70.33
19811;BME280;10065;49.632;8.346;2023-02-17T00:40:32;101373.88;;;11.07;70.36
19811;BME280;10065;49.632;8.346;2023-02-17T00:43:01;101381.25;;;11.04;70.36
19811;BME280;10065;49.632;8.346;2023-02-17T00:45:29;101378.84;;;11.01;70.69
19811;BME280;10065;49.632;8.346;2023-02-17T00:47:56;101375.81;;;11.05;70.49
19811;BME280;10065;49.632;8.346;2023-02-17T00:50:24;101371.34;;;11.06;70.37
19811;BME280;10065;49.632;8.346;2023-02-17T00:52:52;101383.66;;;11.07;70.46
19811;BME280;10065;49.632;8.346;2023-02-17T00:55:19;101373.88;;;11.07;70.42
19811;BME280;10065;49.632;8.346;2023-02-17T00:57:47;101364.53;;;11.13;70.15
19811;BME280;10065;49.632;8.346;2023-02-17T01:00:17;101370.28;;;11.18;70.16
19811;BME280;10065;49.632;8.346;2023-02-17T01:02:45;101367.19;;;11.13;70.28
19811;BME280;10065;49.632;8.346;2023-02-17T01:05:13;101367.06;;;11.14;70.27
19811;BME280;10065;49.632;8.346;2023-02-17T01:07:41;101380.59;;;11.11;70.46
19811;BME280;10065;49.632;8.346;2023-02-17T01:10:09;101371.41;;;11.15;70.19
19811;BME280;10065;49.632;8.346;2023-02-17T01:12:37;101373.94;;;11.17;70.22
19811;BME280;10065;49.632;8.346;2023-02-17T01:15:05;101387.06;;;11.18;70.30
19811;BME280;10065;49.632;8.346;2023-02-17T01:17:34;101388.63;;;11.21;70.05
19811;BME280;10065;49.632;8.346;2023-02-17T01:20:03;101385.84;;;11.22;69.97
19811;BME280;10065;49.632;8.346;2023-02-17T01:22:30;101383.56;;;11.18;69.93
19811;BME280;10065;49.632;8.346;2023-02-17T01:24:58;101393.34;;;11.17;70.14
19811;BME280;10065;49.632;8.346;2023-02-17T01:27:26;101392.84;;;11.23;70.12
19811;BME280;10065;49.632;8.346;2023-02-17T01:29:54;101381.81;;;11.28;69.80
19811;BME280;10065;49.632;8.346;2023-02-17T01:32:21;101381.50;;;11.21;70.18
19811;BME280;10065;49.632;8.346;2023-02-17T01:34:51;101387.66;;;11.22;70.19
19811;BME280;10065;49.632;8.346;2023-02-17T01:37:18;101387.06;;;11.18;70.51
19811;BME280;10065;49.632;8.346;2023-02-17T01:39:46;101381.06;;;11.16;70.62
19811;BME280;10065;49.632;8.346;2023-02-17T01:42:14;101376.31;;;11.20;70.53
19811;BME280;10065;49.632;8.346;2023-02-17T01:47:51;101378.72;;;11.23;70.46
19811;BME280;10065;49.632;8.346;2023-02-17T01:50:24;101383.31;;;11.21;70.55
19811;BME280;10065;49.632;8.346;2023-02-17T01:52:53;101370.22;;;11.29;70.39
19811;BME280;10065;49.632;8.346;2023-02-17T01:55:23;101379.69;;;11.22;70.61
19811;BME280;10065;49.632;8.346;2023-02-17T01:57:54;101371.84;;;11.20;70.72
19811;BME280;10065;49.632;8.346;2023-02-17T02:00:24;101378.00;;;11.21;71.02
19811;BME280;10065;49.632;8.346;2023-02-17T02:02:53;101371.72;;;11.22;71.11
19811;BME280;10065;49.632;8.346;2023-02-17T02:05:22;101369.78;;;11.24;70.91
19811;BME280;10065;49.632;8.346;2023-02-17T02:07:50;101367.81;;;11.26;70.87
19811;BME280;10065;49.632;8.346;2023-02-17T02:10:18;101362.50;;;11.26;71.30
19811;BME280;10065;49.632;8.346;2023-02-17T02:12:46;101361.53;;;11.27;71.02
19811;BME280;10065;49.632;8.346;2023-02-17T02:15:17;101360.00;;;11.24;71.67
19811;BME280;10065;49.632;8.346;2023-02-17T02:17:57;101355.94;;;11.20;72.01
19811;BME280;10065;49.632;8.346;2023-02-17T02:20:41;101335.72;;;11.29;71.79
19811;BME280;10065;49.632;8.346;2023-02-17T02:23:30;101326.59;;;11.22;72.18
19811;BME280;10065;49.632;8.346;2023-02-17T02:26:22;101329.13;;;11.23;72.28
19811;BME280;10065;49.632;8.346;2023-02-17T02:29:20;101323.88;;;11.33;72.28
19811;BME280;10065;49.632;8.346;2023-02-17T02:31:58;101314.59;;;11.27;72.35
19811;BME280;10065;49.632;8.346;2023-02-17T02:34:36;101307.75;;;11.25;72.66
19811;BME280;10065;49.632;8.346;2023-02-17T02:37:07;101305.94;;;11.25;72.72
19811;BME280;10065;49.632;8.346;2023-02-17T02:39:38;101314.03;;;11.24;72.90
19811;BME280;10065;49.632;8.346;2023-02-17T02:42:12;101318.38;;;11.25;72.92
19811;BME280;10065;49.632;8.346;2023-02-17T02:44:41;101305.78;;;11.27;73.35
19811;BME280;10065;49.632;8.346;2023-02-17T02:50:14;101299.41;;;11.39;72.81
19811;BME280;10065;49.632;8.346;2023-02-17T02:52:50;101299.00;;;11.34;73.17
19811;BME280;10065;49.632;8.346;2023-02-17T02:55:29;101300.94;;;11.32;73.19
19811;BME280;10065;49.632;8.346;2023-02-17T02:58:05;101301.66;;;11.34;73.59
19811;BME280;10065;49.632;8.346;2023-02-17T03:00:40;101300.81;;;11.34;73.83
19811;BME280;10065;49.632;8.346;2023-02-17T03:03:16;101292.69;;;11.35;74.29
19811;BME280;10065;49.632;8.346;2023-02-17T03:05:51;101287.13;;;11.38;73.85
19811;BME280;10065;49.632;8.346;2023-02-17T03:08:26;101287.97;;;11.39;74.04
19811;BME280;10065;49.632;8.346;2023-02-17T03:10:56;101281.56;;;11.41;74.22
19811;BME280;10065;49.632;8.346;2023-02-17T03:13:24;101279.16;;;11.38;74.55
19811;BME280;10065;49.632;8.346;2023-02-17T03:15:52;101280.84;;;11.39;74.50
19811;BME280;10065;49.632;8.346;2023-02-17T03:18:19;101281.09;;;11.36;74.68
19811;BME280;10065;49.632;8.346;2023-02-17T03:20:52;101282.34;;;11.32;75.20
19811;BME280;10065;49.632;8.346;2023-02-17T03:23:20;101275.22;;;11.32;74.97
19811;BME280;10065;49.632;8.346;2023-02-17T03:25:48;101274.63;;;11.29;75.27
19811;BME280;10065;49.632;8.346;2023-02-17T03:28:16;101269.31;;;11.29;75.92
19811;BME280;10065;49.632;8.346;2023-02-17T03:30:44;101266.66;;;11.29;76.38
19811;BME280;10065;49.632;8.346;2023-02-17T03:33:12;101274.38;;;11.32;76.35
19811;BME280;10065;49.632;8.346;2023-02-17T03:35:39;101274.63;;;11.29;76.40
19811;BME280;10065;49.632;8.346;2023-02-17T03:38:08;101264.03;;;11.29;77.23
19811;BME280;10065;49.632;8.346;2023-02-17T03:40:36;101276.44;;;11.28;76.65
19811;BME280;10065;49.632;8.346;2023-02-17T03:43:04;101283.88;;;11.35;76.22
19811;BME280;10065;49.632;8.346;2023-02-17T03:45:34;101284.03;;;11.33;75.43
19811;BME280;10065;49.632;8.346;2023-02-17T03:48:02;101287.66;;;11.32;76.48
19811;BME280;10065;49.632;8.346;2023-02-17T03:50:31;101284.16;;;11.31;77.20
19811;BME280;10065;49.632;8.346;2023-02-17T03:52:59;101289.47;;;11.31;76.61
19811;BME280;10065;49.632;8.346;2023-02-17T03:55:28;101286.41;;;11.36;77.43
19811;BME280;10065;49.632;8.346;2023-02-17T03:57:56;101286.28;;;11.38;77.11
19811;BME280;10065;49.632;8.346;2023-02-17T04:00:23;101280.13;;;11.37;77.34
19811;BME280;10065;49.632;8.346;2023-02-17T04:02:51;101285.31;;;11.39;78.01
19811;BME280;10065;49.632;8.346;2023-02-17T04:05:19;101285.19;;;11.40;78.39
19811;BME280;10065;49.632;8.346;2023-02-17T04:07:47;101285.44;;;11.37;77.88
19811;BME280;10065;49.632;8.346;2023-02-17T04:10:15;101282.53;;;11.40;77.84
19811;BME280;10065;49.632;8.346;2023-02-17T04:12:44;101280.97;;;11.38;76.97
19811;BME280;10065;49.632;8.346;2023-02-17T04:15:11;101292.16;;;11.41;77.72
19811;BME280;10065;49.632;8.346;2023-02-17T04:17:39;101290.22;;;11.43;78.42
19811;BME280;10065;49.632;8.346;2023-02-17T04:20:07;101291.59;;;11.38;78.91
19811;BME280;10065;49.632;8.346;2023-02-17T04:22:35;101290.03;;;11.35;79.09
19811;BME280;10065;49.632;8.346;2023-02-17T04:25:03;101293.53;;;11.36;80.07
19811;BME280;10065;49.632;8.346;2023-02-17T04:27:31;101295.22;;;11.37;80.11
19811;BME280;10065;49.632;8.346;2023-02-17T04:30:00;101297.75;;;11.38;80.50
19811;BME280;10065;49.632;8.346;2023-02-17T04:32:28;101289.53;;;11.41;80.15
19811;BME280;10065;49.632;8.346;2023-02-17T04:34:55;101292.88;;;11.43;80.36
19811;BME280;10065;49.632;8.346;2023-02-17T04:37:23;101297.19;;;11.44;80.91
19811;BME280;10065;49.632;8.346;2023-02-17T04:39:51;101294.53;;;11.44;80.71
19811;BME280;10065;49.632;8.346;2023-02-17T04:42:18;101298.03;;;11.45;80.37
19811;BME280;10065;49.632;8.346;2023-02-17T04:44:46;101290.91;;;11.45;81.16
19811;BME280;10065;49.632;8.346;2023-02-17T04:47:15;101297.19;;;11.44;81.43
19811;BME280;10065;49.632;8.346;2023-02-17T04:49:43;101296.34;;;11.44;80.54
19811;BME280;10065;49.632;8.346;2023-02-17T04:52:10;101281.72;;;11.49;81.00
19811;BME280;10065;49.632;8.346;2023-02-17T04:54:38;101284.38;;;11.49;80.03
19811;BME280;10065;49.632;8.346;2023-02-17T04:57:06;101297.38;;;11.52;80.16
19811;BME280;10065;49.632;8.346;2023-02-17T04:59:33;101295.56;;;11.53;80.71
19811;BME280;10065;49.632;8.346;2023-02-17T05:02:01;101296.41;;;11.53;81.50
19811;BME280;10065;49.632;8.346;2023-02-17T05:04:30;101291.09;;;11.53;81.42
19811;BME280;10065;49.632;8.346;2023-02-17T05:06:58;101290.53;;;11.50;81.40
19811;BME280;10065;49.632;8.346;2023-02-17T05:09:26;101291.94;;;11.54;80.98
19811;BME280;10065;49.632;8.346;2023-02-17T05:11:53;101282.28;;;11.53;81.99
19811;BME280;10065;49.632;8.346;2023-02-17T05:14:21;101276.56;;;11.57;81.90
19811;BME280;10065;49.632;8.346;2023-02-17T05:16:49;101282.72;;;11.58;81.79
19811;BME280;10065;49.632;8.346;2023-02-17T05:19:17;101285.50;;;11.56;81.73
19811;BME280;10065;49.632;8.346;2023-02-17T05:21:46;101287.44;;;11.54;82.12
19811;BME280;10065;49.632;8.346;2023-02-17T05:24:13;101290.69;;;11.58;81.38
19811;BME280;10065;49.632;8.346;2023-02-17T05:26:41;101296.97;;;11.57;80.45
19811;BME280;10065;49.632;8.346;2023-02-17T05:29:09;101296.97;;;11.57;81.02
19811;BME280;10065;49.632;8.346;2023-02-17T05:31:37;101297.09;;;11.55;81.23
19811;BME280;10065;49.632;8.346;2023-02-17T05:34:04;101292.78;;;11.54;82.36
19811;BME280;10065;49.632;8.346;2023-02-17T05:36:32;101297.94;;;11.56;82.61
19811;BME280;10065;49.632;8.346;2023-02-17T05:39:01;101289.84;;;11.57;82.65
19811;BME280;10065;49.632;8.346;2023-02-17T05:41:29;101287.91;;;11.59;82.26
19811;BME280;10065;49.632;8.346;2023-02-17T05:43:56;101293.91;;;11.61;82.15
19811;BME280;10065;49.632;8.346;2023-02-17T05:46:24;101297.41;;;11.62;82.18
19811;BME280;10065;49.632;8.346;2023-02-17T05:48:52;101301.75;;;11.63;80.98
19811;BME280;10065;49.632;8.346;2023-02-17T05:51:19;101305.41;;;11.72;81.24
19811;BME280;10065;49.632;8.346;2023-02-17T05:53:47;101315.47;;;11.68;81.66
19811;BME280;10065;49.632;8.346;2023-02-17T05:56:16;101319.13;;;11.67;81.60
19811;BME280;10065;49.632;8.346;2023-02-17T05:58:44;101311.41;;;11.64;82.56
19811;BME280;10065;49.632;8.346;2023-02-17T06:01:12;101318.28;;;11.66;82.74
19811;BME280;10065;49.632;8.346;2023-02-17T06:03:40;101321.63;;;11.68;82.46
19811;BME280;10065;49.632;8.346;2023-02-17T06:06:07;101317.31;;;11.67;81.42
19811;BME280;10065;49.632;8.346;2023-02-17T06:08:35;101320.50;;;11.71;81.45
19811;BME280;10065;49.632;8.346;2023-02-17T06:11:05;101318.56;;;11.73;81.06
19811;BME280;10065;49.632;8.346;2023-02-17T06:13:34;101312.69;;;11.69;82.55
19811;BME280;10065;49.632;8.346;2023-02-17T06:16:02;101316.31;;;11.68;81.29
19811;BME280;10065;49.632;8.346;2023-02-17T06:18:30;101314.34;;;11.70;82.96
19811;BME280;10065;49.632;8.346;2023-02-17T06:20:58;101309.03;;;11.70;82.00
19811;BME280;10065;49.632;8.346;2023-02-17T06:23:26;101309.75;;;11.73;82.24
19811;BME280;10065;49.632;8.346;2023-02-17T06:25:54;101308.25;;;11.80;82.56
19811;BME280;10065;49.632;8.346;2023-02-17T06:28:22;101312.41;;;11.73;83.80
19811;BME280;10065;49.632;8.346;2023-02-17T06:30:51;101305.75;;;11.78;83.30
19811;BME280;10065;49.632;8.346;2023-02-17T06:33:19;101296.25;;;11.76;82.67
19811;BME280;10065;49.632;8.346;2023-02-17T06:35:47;101294.56;;;11.75;83.75
19811;BME280;10065;49.632;8.346;2023-02-17T06:38:16;101298.59;;;11.79;82.39
19811;BME280;10065;49.632;8.346;2023-02-17T06:40:44;101296.78;;;11.79;82.80
19811;BME280;10065;49.632;8.346;2023-02-17T06:43:11;101304.50;;;11.82;82.98
19811;BME280;10065;49.632;8.346;2023-02-17T06:45:39;101297.94;;;11.86;83.05
19811;BME280;10065;49.632;8.346;2023-02-17T06:48:08;101299.31;;;11.81;83.46
19811;BME280;10065;49.632;8.346;2023-02-17T06:50:36;101301.25;;;11.79;84.12
19811;BME280;10065;49.632;8.346;2023-02-17T06:53:04;101309.56;;;11.85;83.40
19811;BME280;10065;49.632;8.346;2023-02-17T06:55:32;101310.78;;;11.81;83.80
19811;BME280;10065;49.632;8.346;2023-02-17T06:58:00;101313.56;;;11.80;84.11
19811;BME280;10065;49.632;8.346;2023-02-17T07:00:28;101315.84;;;11.84;83.56
19811;BME280;10065;49.632;8.346;2023-02-17T07:02:56;101329.00;;;11.86;83.82
19811;BME280;10065;49.632;8.346;2023-02-17T07:05:26;101330.09;;;11.83;83.75
19811;BME280;10065;49.632;8.346;2023-02-17T07:07:56;101326.47;;;11.84;83.80
19811;BME280;10065;49.632;8.346;2023-02-17T07:10:24;101336.97;;;11.86;83.20
19811;BME280;10065;49.632;8.346;2023-02-17T07:12:51;101332.63;;;11.85;83.76
19811;BME280;10065;49.632;8.346;2023-02-17T07:15:19;101333.19;;;11.88;83.50
19811;BME280;10065;49.632;8.346;2023-02-17T07:17:47;101336.56;;;12.00;82.79
19811;BME280;10065;49.632;8.346;2023-02-17T07:20:14;101355.75;;;11.94;83.42
19811;BME280;10065;49.632;8.346;2023-02-17T07:22:43;101367.59;;;11.90;83.91
19811;BME280;10065;49.632;8.346;2023-02-17T07:25:11;101360.88;;;11.86;84.25
19811;BME280;10065;49.632;8.346;2023-02-17T07:27:39;101356.97;;;11.90;83.44
19811;BME280;10065;49.632;8.346;2023-02-17T07:30:07;101363.25;;;11.89;83.92
19811;BME280;10065;49.632;8.346;2023-02-17T07:32:35;101362.28;;;11.90;83.88
19811;BME280;10065;49.632;8.346;2023-02-17T07:35:03;101353.88;;;11.85;84.65
19811;BME280;10065;49.632;8.346;2023-02-17T07:37:31;101350.81;;;11.89;83.84
19811;BME280;10065;49.632;8.346;2023-02-17T07:40:00;101348.03;;;11.91;84.11
19811;BME280;10065;49.632;8.346;2023-02-17T07:42:29;101347.19;;;11.90;84.45
19811;BME280;10065;49.632;8.346;2023-02-17T07:44:57;101347.34;;;11.98;83.96
19811;BME280;10065;49.632;8.346;2023-02-17T07:47:25;101343.72;;;11.99;83.93
19811;BME280;10065;49.632;8.346;2023-02-17T07:49:52;101335.72;;;11.99;83.51
19811;BME280;10065;49.632;8.346;2023-02-17T07:52:20;101328.47;;;12.01;83.66
19811;BME280;10065;49.632;8.346;2023-02-17T07:54:47;101331.97;;;12.02;83.79
19811;BME280;10065;49.632;8.346;2023-02-17T07:57:16;101345.13;;;12.03;83.83
19811;BME280;10065;49.632;8.346;2023-02-17T07:59:45;101341.63;;;12.03;84.04
19811;BME280;10065;49.632;8.346;2023-02-17T08:02:12;101345.25;;;12.02;83.86
19811;BME280;10065;49.632;8.346;2023-02-17T08:04:40;101344.41;;;12.01;83.91
19811;BME280;10065;49.632;8.346;2023-02-17T08:07:08;101344.97;;;12.05;83.90
19811;BME280;10065;49.632;8.346;2023-02-17T08:09:36;101348.34;;;12.07;83.33
19811;BME280;10065;49.632;8.346;2023-02-17T08:12:23;101340.81;;;12.12;83.07
19811;BME280;10065;49.632;8.346;2023-02-17T08:15:09;101353.97;;;12.14;82.62
19811;BME280;10065;49.632;8.346;2023-02-17T08:17:37;101360.91;;;12.05;83.65
19811;BME280;10065;49.632;8.346;2023-02-17T08:20:06;101368.25;;;12.13;82.72
19811;BME280;10065;49.632;8.346;2023-02-17T08:22:35;101354.78;;;12.14;82.19
19811;BME280;10065;49.632;8.346;2023-02-17T08:25:03;101349.22;;;12.17;81.69
19811;BME280;10065;49.632;8.346;2023-02-17T08:27:32;101356.22;;;12.18;82.45
19811;BME280;10065;49.632;8.346;2023-02-17T08:30:00;101333.38;;;12.16;82.29
19811;BME280;10065;49.632;8.346;2023-02-17T08:32:28;101359.97;;;12.16;82.58
19811;BME280;10065;49.632;8.346;2023-02-17T08:34:57;101352.84;;;12.16;82.48
19811;BME280;10065;49.632;8.346;2023-02-17T08:37:24;101345.56;;;12.18;82.31
19811;BME280;10065;49.632;8.346;2023-02-17T08:39:52;101334.69;;;12.21;82.48
19811;BME280;10065;49.632;8.346;2023-02-17T08:42:20;101340.84;;;12.22;82.19
19811;BME280;10065;49.632;8.346;2023-02-17T08:44:49;101321.78;;;12.26;82.28
19811;BME280;10065;49.632;8.346;2023-02-17T08:47:17;101336.63;;;12.29;82.11
19811;BME280;10065;49.632;8.346;2023-02-17T08:49:44;101345.00;;;12.24;82.34
19811;BME280;10065;49.632;8.346;2023-02-17T08:52:12;101355.13;;;12.30;81.84
19811;BME280;10065;49.632;8.346;2023-02-17T08:54:40;101359.31;;;12.33;81.60
19811;BME280;10065;49.632;8.346;2023-02-17T08:57:08;101352.31;;;12.32;81.28
19811;BME280;10065;49.632;8.346;2023-02-17T08:59:35;101351.19;;;12.34;80.78
19811;BME280;10065;49.632;8.346;2023-02-17T09:02:04;101353.47;;;12.39;81.44
19811;BME280;10065;49.632;8.346;2023-02-17T09:04:32;101350.63;;;12.40;80.99
19811;BME280;10065;49.632;8.346;2023-02-17T09:07:00;101354.00;;;12.42;80.28
19811;BME280;10065;49.632;8.346;2023-02-17T09:09:28;101351.78;;;12.48;80.67
19811;BME280;10065;49.632;8.346;2023-02-17T09:11:57;101350.66;;;12.50;80.79
19811;BME280;10065;49.632;8.346;2023-02-17T09:14:25;101371.09;;;12.50;80.55
19811;BME280;10065;49.632;8.346;2023-02-17T09:16:54;101361.00;;;12.43;81.36
19811;BME280;10065;49.632;8.346;2023-02-17T09:19:24;101370.09;;;12.41;82.18
19811;BME280;10065;49.632;8.346;2023-02-17T09:21:52;101368.72;;;12.47;82.17
19811;BME280;10065;49.632;8.346;2023-02-17T09:24:20;101369.13;;;12.52;81.34
19811;BME280;10065;49.632;8.346;2023-02-17T09:26:48;101369.13;;;12.52;81.22
19811;BME280;10065;49.632;8.346;2023-02-17T09:29:16;101374.19;;;12.55;81.53
19811;BME280;10065;49.632;8.346;2023-02-17T09:31:43;101367.31;;;12.62;80.96
19811;BME280;10065;49.632;8.346;2023-02-17T09:34:11;101362.72;;;12.64;81.25
19811;BME280;10065;49.632;8.346;2023-02-17T09:36:41;101350.94;;;12.57;81.19
19811;BME280;10065;49.632;8.346;2023-02-17T09:39:09;101356.53;;;12.54;81.95
19811;BME280;10065;49.632;8.346;2023-02-17T09:41:42;101363.25;;;12.58;82.49
19811;BME280;10065;49.632;8.346;2023-02-17T09:44:16;101340.84;;;12.70;82.00
19811;BME280;10065;49.632;8.346;2023-02-17T09:46:53;101347.16;;;12.69;81.59
19811;BME280;10065;49.632;8.346;2023-02-17T09:49:32;101340.97;;;12.68;82.58
19811;BME280;10065;49.632;8.346;2023-02-17T09:52:09;101351.22;;;12.73;82.03
19811;BME280;10065;49.632;8.346;2023-02-17T09:54:45;101351.63;;;12.68;82.80
19811;BME280;10065;49.632;8.346;2023-02-17T09:57:17;101357.94;;;12.77;82.69
19811;BME280;10065;49.632;8.346;2023-02-17T09:59:48;101364.22;;;12.76;82.95
19811;BME280;10065;49.632;8.346;2023-02-17T10:02:22;101377.84;;;12.73;83.02
19811;BME280;10065;49.632;8.346;2023-02-17T10:04:53;101380.06;;;12.68;83.32
19811;BME280;10065;49.632;8.346;2023-02-17T10:07:27;101384.97;;;12.72;82.83
19811;BME280;10065;49.632;8.346;2023-02-17T10:10:02;101388.19;;;12.76;82.70
19811;BME280;10065;49.632;8.346;2023-02-17T10:12:34;101384.84;;;12.74;83.49
19811;BME280;10065;49.632;8.346;2023-02-17T10:15:08;101392.13;;;12.72;83.09
19811;BME280;10065;49.632;8.346;2023-02-17T10:17:43;101399.13;;;12.73;83.31
19811;BME280;10065;49.632;8.346;2023-02-17T10:20:17;101393.94;;;12.71;82.77
19811;BME280;10065;49.632;8.346;2023-02-17T10:22:52;101394.66;;;12.73;83.07
19811;BME280;10065;49.632;8.346;2023-02-17T10:25:24;101400.50;;;12.77;83.06
19811;BME280;10065;49.632;8.346;2023-02-17T10:28:02;101406.69;;;12.77;82.71
19811;BME280;10065;49.632;8.346;2023-02-17T10:30:40;101414.25;;;12.82;82.80
19811;BME280;10065;49.632;8.346;2023-02-17T10:33:13;101403.88;;;12.89;81.59
19811;BME280;10065;49.632;8.346;2023-02-17T10:35:48;101408.50;;;12.87;82.44
19811;BME280;10065;49.632;8.346;2023-02-17T10:38:30;101398.84;;;12.95;82.40
19811;BME280;10065;49.632;8.346;2023-02-17T10:41:01;101398.84;;;12.95;82.38
19811;BME280;10065;49.632;8.346;2023-02-17T10:43:31;101405.84;;;12.96;81.76
19811;BME280;10065;49.632;8.346;2023-02-17T10:46:02;101416.09;;;13.01;82.03
19811;BME280;10065;49.632;8.346;2023-02-17T10:48:34;101404.41;;;13.11;81.28
19811;BME280;10065;49.632;8.346;2023-02-17T10:51:02;101410.59;;;13.12;81.04
19811;BME280;10065;49.632;8.346;2023-02-17T10:53:33;101406.41;;;13.09;81.70
19811;BME280;10065;49.632;8.346;2023-02-17T10:56:07;101414.22;;;13.11;81.21
19811;BME280;10065;49.632;8.346;2023-02-17T10:58:40;101405.13;;;13.04;81.19
19811;BME280;10065;49.632;8.346;2023-02-17T11:01:12;101392.81;;;13.03;81.42
19811;BME280;10065;49.632;8.346;2023-02-17T11:03:40;101399.94;;;13.02;82.25
19811;BME280;10065;49.632;8.346;2023-02-17T11:06:17;101405.25;;;13.12;81.75
19811;BME280;10065;49.632;8.346;2023-02-17T11:08:49;101401.09;;;13.09;82.00
19811;BME280;10065;49.632;8.346;2023-02-17T11:11:19;101392.53;;;13.06;82.38
19811;BME280;10065;49.632;8.346;2023-02-17T11:14:00;101388.19;;;13.05;82.44
19811;BME280;10065;49.632;8.346;2023-02-17T11:16:33;101397.28;;;13.02;82.82
19811;BME280;10065;49.632;8.346;2023-02-17T11:19:03;101398.69;;;13.06;83.08
19811;BME280;10065;49.632;8.346;2023-02-17T11:21:32;101394.34;;;13.05;82.93
19811;BME280;10065;49.632;8.346;2023-02-17T11:24:04;101398.97;;;13.03;83.33
19811;BME280;10065;49.632;8.346;2023-02-17T11:26:33;101383.00;;;13.03;83.45
19811;BME280;10065;49.632;8.346;2023-02-17T11:29:09;101387.22;;;13.15;82.67
19811;BME280;10065;49.632;8.346;2023-02-17T11:31:37;101381.47;;;13.10;82.81
19811;BME280;10065;49.632;8.346;2023-02-17T11:34:13;101366.88;;;13.05;83.08
19811;BME280;10065;49.632;8.346;2023-02-17T11:36:43;101373.31;;;13.02;83.40
19811;BME280;10065;49.632;8.346;2023-02-17T11:39:20;101364.06;;;13.06;83.38
19811;BME280;10065;49.632;8.346;2023-02-17T11:41:48;101366.88;;;13.05;83.29
19811;BME280;10065;49.632;8.346;2023-02-17T11:44:22;101359.47;;;13.08;82.95
19811;BME280;10065;49.632;8.346;2023-02-17T11:46:57;101357.91;;;13.06;82.71
19811;BME280;10065;49.632;8.346;2023-02-17T11:49:41;101366.16;;;13.12;82.41
19811;BME280;10065;49.632;8.346;2023-02-17T11:52:23;101347.00;;;13.18;82.13
19811;BME280;10065;49.632;8.346;2023-02-17T11:55:05;101349.34;;;13.22;82.09
19811;BME280;10065;49.632;8.346;2023-02-17T11:57:37;101354.81;;;13.30;81.79
19811;BME280;10065;49.632;8.346;2023-02-17T12:00:14;101345.00;;;13.30;81.94
19811;BME280;10065;49.632;8.346;2023-02-17T12:02:58;101336.25;;;13.38;81.54
19811;BME280;10065;49.632;8.346;2023-02-17T12:05:36;101336.78;;;13.51;81.00
19811;BME280;10065;49.632;8.346;2023-02-17T12:08:19;101351.50;;;13.55;80.89
19811;BME280;10065;49.632;8.346;2023-02-17T12:11:00;101338.53;;;13.70;80.27
19811;BME280;10065;49.632;8.346;2023-02-17T12:13:41;101341.59;;;14.02;79.19
19811;BME280;10065;49.632;8.346;2023-02-17T12:16:22;101348.56;;;16.29;70.32
19811;BME280;10065;49.632;8.346;2023-02-17T12:19:00;101338.94;;;17.81;62.46
19811;BME280;10065;49.632;8.346;2023-02-17T12:21:46;101333.28;;;18.37;59.10
19811;BME280;10065;49.632;8.346;2023-02-17T12:24:36;101336.94;;;18.67;58.05
19811;BME280;10065;49.632;8.346;2023-02-17T12:27:19;101348.72;;;19.18;56.10
19811;BME280;10065;49.632;8.346;2023-02-17T12:30:04;101354.28;;;18.57;57.98
19811;BME280;10065;49.632;8.346;2023-02-17T12:32:47;101368.41;;;17.89;59.06
19811;BME280;10065;49.632;8.346;2023-02-17T12:35:24;101356.47;;;17.36;61.24
19811;BME280;10065;49.632;8.346;2023-02-17T12:37:56;101365.41;;;16.88;62.52
19811;BME280;10065;49.632;8.346;2023-02-17T12:40:34;101360.47;;;16.43;64.39
19811;BME280;10065;49.632;8.346;2023-02-17T12:43:17;101351.00;;;15.98;66.62
19811;BME280;10065;49.632;8.346;2023-02-17T12:45:50;101352.84;;;15.64;67.97
19811;BME280;10065;49.632;8.346;2023-02-17T12:48:23;101349.28;;;15.29;69.38
19811;BME280;10065;49.632;8.346;2023-02-17T12:50:55;101334.50;;;15.17;70.41
19811;BME280;10065;49.632;8.346;2023-02-17T12:53:38;101338.59;;;15.03;71.81
19811;BME280;10065;49.632;8.346;2023-02-17T12:56:26;101316.72;;;14.82;72.25
19811;BME280;10065;49.632;8.346;2023-02-17T12:59:09;101320.94;;;14.67;73.93
19811;BME280;10065;49.632;8.346;2023-02-17T13:04:28;101311.34;;;14.56;74.32
19811;BME280;10065;49.632;8.346;2023-02-17T13:09:52;101313.59;;;14.34;75.95
19811;BME280;10065;49.632;8.346;2023-02-17T13:12:36;101314.03;;;14.29;76.26
19811;BME280;10065;49.632;8.346;2023-02-17T13:15:26;101312.50;;;14.26;76.81
19811;BME280;10065;49.632;8.346;2023-02-17T13:17:56;101307.31;;;14.25;77.23
19811;BME280;10065;49.632;8.346;2023-02-17T13:20:38;101300.47;;;14.22;77.60